sensor_id;sensor_type;location;lat;lon;timestamp;pressure;altitude;pressure_sealevel;temperature;humidity
14818;BME280;7500;57.698;11.986;2022-12-11T00:02:27;101605.06;;;-2.28;100.00
14818;BME280;7500;57.698;11.986;2022-12-11T00:04:54;101614.66;;;-2.20;100.00
14818;BME280;7500;57.698;11.986;2022-12-11T00:07:21;101618.94;;;-2.21;100.00
14818;BME280;7500;57.698;11.986;2022-12-11T00:09:49;101616.31;;;-2.26;100.00
14818;BME280;7500;57.698;11.986;2022-12-11T00:12:16;101612.88;;;-2.25;100.00
14818;BME280;7500;57.698;11.986;2022-12-11T00:14:43;101613.72;;;-2.25;100.00
14818;BME280;7500;57.698;11.986;2022-12-11T00:17:10;101608.59;;;-2.22;100.00
14818;BME280;7500;57.698;11.986;2022-12-11T00:19:37;101610.34;;;-2.21;100.00
14818;BME280;7500;57.698;11.986;2022-12-11T00:22:04;101611.09;;;-2.29;100.00
14818;BME280;7500;57.698;11.986;2022-12-11T00:24:31;101615.47;;;-2.24;100.00
14818;BME280;7500;57.698;11.986;2022-12-11T00:26:59;101620.53;;;-2.31;100.00
14818;BME280;7500;57.698;11.986;2022-12-11T00:29:26;101624.84;;;-2.32;100.00
14818;BME280;7500;57.698;11.986;2022-12-11T00:31:53;101621.44;;;-2.28;100.00
14818;BME280;7500;57.698;11.986;2022-12-11T00:34:20;101623.25;;;-2.22;100.00
14818;BME280;7500;57.698;11.986;2022-12-11T00:36:47;101622.41;;;-2.20;100.00
14818;BME280;7500;57.698;11.986;2022-12-11T00:39:14;101617.31;;;-2.16;100.00
14818;BME280;7500;57.698;11.986;2022-12-11T00:41:41;101612.97;;;-2.17;100.00
14818;BME280;7500;57.698;11.986;2022-12-11T00:44:09;101618.19;;;-2.14;100.00
14818;BME280;7500;57.698;11.986;2022-12-11T00:46:36;101612.16;;;-2.13;100.00
14818;BME280;7500;57.698;11.986;2022-12-11T00:49:03;101620.81;;;-2.12;100.00
14818;BME280;7500;57.698;11.986;2022-12-11T00:51:30;101620.78;;;-2.15;100.00
14818;BME280;7500;57.698;11.986;2022-12-11T00:53:57;101620.81;;;-2.11;100.00
14818;BME280;7500;57.698;11.986;2022-12-11T00:56:24;101624.34;;;-2.07;100.00
14818;BME280;7500;57.698;11.986;2022-12-11T00:58:51;101629.56;;;-2.04;100.00
14818;BME280;7500;57.698;11.986;2022-12-11T01:01:22;101632.19;;;-1.98;100.00
14818;BME280;7500;57.698;11.986;2022-12-11T01:03:50;101627.94;;;-1.93;100.00
14818;BME280;7500;57.698;11.986;2022-12-11T01:06:19;101628.84;;;-1.91;100.00
14818;BME280;7500;57.698;11.986;2022-12-11T01:08:46;101634.81;;;-1.95;100.00
14818;BME280;7500;57.698;11.986;2022-12-11T01:11:33;101633.22;;;-1.87;100.00
14818;BME280;7500;57.698;11.986;2022-12-11T01:13:59;101639.25;;;-1.87;100.00
14818;BME280;7500;57.698;11.986;2022-12-11T01:16:27;101635.72;;;-1.95;100.00
14818;BME280;7500;57.698;11.986;2022-12-11T01:18:55;101636.69;;;-1.85;100.00
14818;BME280;7500;57.698;11.986;2022-12-11T01:21:22;101628.16;;;-1.78;100.00
14818;BME280;7500;57.698;11.986;2022-12-11T01:23:50;101636.81;;;-1.75;100.00
14818;BME280;7500;57.698;11.986;2022-12-11T01:26:17;101629.97;;;-1.70;100.00
14818;BME280;7500;57.698;11.986;2022-12-11T01:28:47;101635.19;;;-1.65;100.00
14818;BME280;7500;57.698;11.986;2022-12-11T01:31:15;101630.88;;;-1.66;100.00
14818;BME280;7500;57.698;11.986;2022-12-11T01:33:44;101633.50;;;-1.63;100.00
14818;BME280;7500;57.698;11.986;2022-12-11T01:36:13;101624.03;;;-1.63;100.00
14818;BME280;7500;57.698;11.986;2022-12-11T01:38:40;101631.88;;;-1.55;100.00
14818;BME280;7500;57.698;11.986;2022-12-11T01:41:08;101618.94;;;-1.55;100.00
14818;BME280;7500;57.698;11.986;2022-12-11T01:46:17;101636.03;;;-1.66;100.00
14818;BME280;7500;57.698;11.986;2022-12-11T01:48:45;101549.94;;;-2.27;100.00
14818;BME280;7500;57.698;11.986;2022-12-11T01:51:13;101638.47;;;-1.81;100.00
14818;BME280;7500;57.698;11.986;2022-12-11T01:53:44;101638.50;;;-1.77;100.00
14818;BME280;7500;57.698;11.986;2022-12-11T01:56:14;101641.13;;;-1.74;100.00
14818;BME280;7500;57.698;11.986;2022-12-11T01:58:45;101636.03;;;-1.68;100.00
14818;BME280;7500;57.698;11.986;2022-12-11T02:01:17;101633.56;;;-1.57;100.00
14818;BME280;7500;57.698;11.986;2022-12-11T02:03:49;101637.81;;;-1.64;100.00
14818;BME280;7500;57.698;11.986;2022-12-11T02:06:34;101622.13;;;-1.77;100.00
14818;BME280;7500;57.698;11.986;2022-12-11T02:09:03;101624.69;;;-1.79;100.00
14818;BME280;7500;57.698;11.986;2022-12-11T02:11:38;101627.34;;;-1.73;100.00
14818;BME280;7500;57.698;11.986;2022-12-11T02:14:13;101617.88;;;-1.72;100.00
14818;BME280;7500;57.698;11.986;2022-12-11T02:16:49;101624.75;;;-1.74;100.00
14818;BME280;7500;57.698;11.986;2022-12-11T02:19:37;101621.16;;;-1.84;100.00
14818;BME280;7500;57.698;11.986;2022-12-11T02:22:21;101624.59;;;-1.86;100.00
14818;BME280;7500;57.698;11.986;2022-12-11T02:25:03;101613.28;;;-1.96;100.00
14818;BME280;7500;57.698;11.986;2022-12-11T02:27:37;101624.50;;;-1.92;100.00
14818;BME280;7500;57.698;11.986;2022-12-11T02:30:07;101630.56;;;-1.92;100.00
14818;BME280;7500;57.698;11.986;2022-12-11T02:32:38;101626.22;;;-1.96;100.00
14818;BME280;7500;57.698;11.986;2022-12-11T02:35:12;101627.03;;;-1.98;100.00
14818;BME280;7500;57.698;11.986;2022-12-11T02:37:43;101624.56;;;-1.91;100.00
14818;BME280;7500;57.698;11.986;2022-12-11T02:40:14;101629.69;;;-1.94;100.00
14818;BME280;7500;57.698;11.986;2022-12-11T02:42:45;101621.84;;;-1.98;100.00
14818;BME280;7500;57.698;11.986;2022-12-11T02:45:16;101619.34;;;-1.92;100.00
14818;BME280;7500;57.698;11.986;2022-12-11T02:47:46;101620.31;;;-1.84;100.00
14818;BME280;7500;57.698;11.986;2022-12-11T02:50:16;101611.66;;;-1.86;100.00
14818;BME280;7500;57.698;11.986;2022-12-11T02:52:45;101606.41;;;-1.94;100.00
14818;BME280;7500;57.698;11.986;2022-12-11T02:55:14;101616.75;;;-1.92;100.00
14818;BME280;7500;57.698;11.986;2022-12-11T02:57:46;101625.44;;;-1.86;100.00
14818;BME280;7500;57.698;11.986;2022-12-11T03:00:15;101622.88;;;-1.87;100.00
14818;BME280;7500;57.698;11.986;2022-12-11T03:02:43;101623.72;;;-1.90;100.00
14818;BME280;7500;57.698;11.986;2022-12-11T03:05:11;101617.56;;;-1.96;100.00
14818;BME280;7500;57.698;11.986;2022-12-11T03:07:40;101622.72;;;-1.98;100.00
14818;BME280;7500;57.698;11.986;2022-12-11T03:10:10;101620.06;;;-2.02;100.00
14818;BME280;7500;57.698;11.986;2022-12-11T03:12:41;101614.13;;;-1.95;100.00
14818;BME280;7500;57.698;11.986;2022-12-11T03:15:12;101607.22;;;-1.96;100.00
14818;BME280;7500;57.698;11.986;2022-12-11T03:17:48;101613.28;;;-1.96;100.00
14818;BME280;7500;57.698;11.986;2022-12-11T03:20:25;101612.38;;;-1.96;100.00
14818;BME280;7500;57.698;11.986;2022-12-11T03:22:58;101609.84;;;-1.93;100.00
14818;BME280;7500;57.698;11.986;2022-12-11T03:25:34;101614.13;;;-1.95;100.00
14818;BME280;7500;57.698;11.986;2022-12-11T03:28:08;101601.22;;;-1.94;100.00
14818;BME280;7500;57.698;11.986;2022-12-11T03:30:37;101599.56;;;-1.89;100.00
14818;BME280;7500;57.698;11.986;2022-12-11T03:33:10;101596.91;;;-1.95;100.00
14818;BME280;7500;57.698;11.986;2022-12-11T03:35:40;101597.78;;;-1.93;100.00
14818;BME280;7500;57.698;11.986;2022-12-11T03:38:12;101584.75;;;-2.00;100.00
14818;BME280;7500;57.698;11.986;2022-12-11T03:40:42;101583.84;;;-2.04;100.00
14818;BME280;7500;57.698;11.986;2022-12-11T03:43:12;101596.81;;;-1.99;100.00
14818;BME280;7500;57.698;11.986;2022-12-11T03:45:40;101593.44;;;-1.95;100.00
14818;BME280;7500;57.698;11.986;2022-12-11T03:48:10;101595.09;;;-2.00;100.00
14818;BME280;7500;57.698;11.986;2022-12-11T03:50:40;101601.22;;;-1.94;100.00
14818;BME280;7500;57.698;11.986;2022-12-11T03:53:09;101599.53;;;-1.92;100.00
14818;BME280;7500;57.698;11.986;2022-12-11T03:55:37;101590.00;;;-1.94;100.00
14818;BME280;7500;57.698;11.986;2022-12-11T03:58:05;101590.88;;;-1.94;100.00
14818;BME280;7500;57.698;11.986;2022-12-11T04:00:32;101591.72;;;-1.93;100.00
14818;BME280;7500;57.698;11.986;2022-12-11T04:02:59;101594.34;;;-1.90;100.00
14818;BME280;7500;57.698;11.986;2022-12-11T04:05:46;101589.09;;;-1.98;100.00
14818;BME280;7500;57.698;11.986;2022-12-11T04:08:13;101585.72;;;-1.92;100.00
14818;BME280;7500;57.698;11.986;2022-12-11T04:10:40;101594.31;;;-1.93;100.00
14818;BME280;7500;57.698;11.986;2022-12-11T04:13:07;101585.72;;;-1.92;100.00
14818;BME280;7500;57.698;11.986;2022-12-11T04:15:36;101594.28;;;-1.96;100.00
14818;BME280;7500;57.698;11.986;2022-12-11T04:18:02;101595.25;;;-1.88;100.00
14818;BME280;7500;57.698;11.986;2022-12-11T04:20:48;101587.56;;;-1.82;100.00
14818;BME280;7500;57.698;11.986;2022-12-11T04:23:33;101580.59;;;-1.88;100.00
14818;BME280;7500;57.698;11.986;2022-12-11T04:26:26;101589.22;;;-1.87;100.00
14818;BME280;7500;57.698;11.986;2022-12-11T04:28:53;101592.66;;;-1.87;100.00
14818;BME280;7500;57.698;11.986;2022-12-11T04:31:21;101586.72;;;-1.81;100.00
14818;BME280;7500;57.698;11.986;2022-12-11T04:33:48;101590.88;;;-1.92;100.00
14818;BME280;7500;57.698;11.986;2022-12-11T04:36:16;101589.16;;;-1.93;100.00
14818;BME280;7500;57.698;11.986;2022-12-11T04:38:43;101582.31;;;-1.90;100.00
14818;BME280;7500;57.698;11.986;2022-12-11T04:41:12;101581.97;;;-2.15;100.00
14818;BME280;7500;57.698;11.986;2022-12-11T04:43:40;101589.66;;;-2.20;100.00
14818;BME280;7500;57.698;11.986;2022-12-11T04:46:11;101601.69;;;-2.23;100.00
14818;BME280;7500;57.698;11.986;2022-12-11T04:48:38;101582.75;;;-2.23;100.00
14818;BME280;7500;57.698;11.986;2022-12-11T04:51:07;101591.41;;;-2.20;100.00
14818;BME280;7500;57.698;11.986;2022-12-11T04:53:36;101584.47;;;-2.21;100.00
14818;BME280;7500;57.698;11.986;2022-12-11T04:56:04;101587.91;;;-2.23;100.00
14818;BME280;7500;57.698;11.986;2022-12-11T04:58:31;101575.97;;;-2.14;100.00
14818;BME280;7500;57.698;11.986;2022-12-11T05:01:00;101584.69;;;-2.05;100.00
14818;BME280;7500;57.698;11.986;2022-12-11T05:03:32;101554.22;;;-2.28;100.00
14818;BME280;7500;57.698;11.986;2022-12-11T05:05:59;101580.31;;;-2.10;100.00
14818;BME280;7500;57.698;11.986;2022-12-11T05:08:26;101585.63;;;-1.98;100.00
14818;BME280;7500;57.698;11.986;2022-12-11T05:10:58;101576.09;;;-2.04;100.00
14818;BME280;7500;57.698;11.986;2022-12-11T05:13:27;101573.50;;;-2.05;100.00
14818;BME280;7500;57.698;11.986;2022-12-11T05:15:54;101579.53;;;-2.03;100.00
14818;BME280;7500;57.698;11.986;2022-12-11T05:18:22;101575.31;;;-1.95;100.00
14818;BME280;7500;57.698;11.986;2022-12-11T05:20:54;101585.63;;;-1.98;100.00
14818;BME280;7500;57.698;11.986;2022-12-11T05:23:21;101586.44;;;-2.02;100.00
14818;BME280;7500;57.698;11.986;2022-12-11T05:25:51;101591.47;;;-2.13;100.00
14818;BME280;7500;57.698;11.986;2022-12-11T05:28:20;101589.78;;;-2.12;100.00
14818;BME280;7500;57.698;11.986;2022-12-11T05:30:54;101579.34;;;-2.18;100.00
14818;BME280;7500;57.698;11.986;2022-12-11T05:33:21;101589.66;;;-2.21;100.00
14818;BME280;7500;57.698;11.986;2022-12-11T05:35:48;101593.31;;;-2.07;100.00
14818;BME280;7500;57.698;11.986;2022-12-11T05:38:15;101589.16;;;-1.93;100.00
14818;BME280;7500;57.698;11.986;2022-12-11T05:40:42;101578.72;;;-2.01;100.00
14818;BME280;7500;57.698;11.986;2022-12-11T05:43:09;101574.34;;;-2.06;100.00
14818;BME280;7500;57.698;11.986;2022-12-11T05:45:37;101582.88;;;-2.13;100.00
14818;BME280;7500;57.698;11.986;2022-12-11T05:48:04;101584.53;;;-2.18;100.00
14818;BME280;7500;57.698;11.986;2022-12-11T05:50:31;101576.81;;;-2.14;100.00
14818;BME280;7500;57.698;11.986;2022-12-11T05:52:58;101572.53;;;-2.13;100.00
14818;BME280;7500;57.698;11.986;2022-12-11T05:55:25;101583.00;;;-2.01;100.00
14818;BME280;7500;57.698;11.986;2022-12-11T05:57:52;101581.09;;;-2.17;100.00
14818;BME280;7500;57.698;11.986;2022-12-11T06:00:19;101584.44;;;-2.25;100.00
14818;BME280;7500;57.698;11.986;2022-12-11T06:02:48;101583.59;;;-2.23;100.00
14818;BME280;7500;57.698;11.986;2022-12-11T06:05:15;101580.16;;;-2.23;100.00
14818;BME280;7500;57.698;11.986;2022-12-11T06:07:42;101584.34;;;-2.31;100.00
14818;BME280;7500;57.698;11.986;2022-12-11T06:10:09;101589.53;;;-2.31;100.00
14818;BME280;7500;57.698;11.986;2022-12-11T06:12:36;101581.56;;;-2.45;100.00
14818;BME280;7500;57.698;11.986;2022-12-11T06:15:03;101598.13;;;-2.31;100.00
14818;BME280;7500;57.698;11.986;2022-12-11T06:17:30;101604.19;;;-2.29;100.00
14818;BME280;7500;57.698;11.986;2022-12-11T06:19:59;101611.84;;;-2.36;100.00
14818;BME280;7500;57.698;11.986;2022-12-11T06:22:26;101610.81;;;-2.49;100.00
14818;BME280;7500;57.698;11.986;2022-12-11T06:24:59;101608.19;;;-2.52;100.00
14818;BME280;7500;57.698;11.986;2022-12-11T06:27:26;101615.13;;;-2.48;100.00
14818;BME280;7500;57.698;11.986;2022-12-11T06:29:53;101610.78;;;-2.50;100.00
14818;BME280;7500;57.698;11.986;2022-12-11T06:32:20;101612.78;;;-2.31;100.00
14818;BME280;7500;57.698;11.986;2022-12-11T06:34:47;101622.19;;;-2.35;100.00
14818;BME280;7500;57.698;11.986;2022-12-11T06:37:16;101611.00;;;-2.34;100.00
14818;BME280;7500;57.698;11.986;2022-12-11T06:39:43;101622.25;;;-2.32;100.00
14818;BME280;7500;57.698;11.986;2022-12-11T06:42:09;101429.41;;;-3.45;100.00
14818;BME280;7500;57.698;11.986;2022-12-11T06:44:37;101616.91;;;-2.44;100.00
14818;BME280;7500;57.698;11.986;2022-12-11T06:47:04;101616.09;;;-2.41;100.00
14818;BME280;7500;57.698;11.986;2022-12-11T06:49:31;101622.19;;;-2.35;100.00
14818;BME280;7500;57.698;11.986;2022-12-11T06:51:58;101626.66;;;-2.26;100.00
14818;BME280;7500;57.698;11.986;2022-12-11T06:54:26;101595.25;;;-2.50;100.00
14818;BME280;7500;57.698;11.986;2022-12-11T06:56:53;101627.41;;;-2.33;100.00
14818;BME280;7500;57.698;11.986;2022-12-11T06:59:20;101632.53;;;-2.38;100.00
14818;BME280;7500;57.698;11.986;2022-12-11T07:01:47;101626.31;;;-2.47;100.00
14818;BME280;7500;57.698;11.986;2022-12-11T07:04:14;101622.19;;;-2.38;100.00
14818;BME280;7500;57.698;11.986;2022-12-11T07:06:41;101626.66;;;-2.26;100.00
14818;BME280;7500;57.698;11.986;2022-12-11T07:09:08;101626.69;;;-2.22;100.00
14818;BME280;7500;57.698;11.986;2022-12-11T07:11:37;101629.16;;;-2.31;100.00
14818;BME280;7500;57.698;11.986;2022-12-11T07:14:04;101631.59;;;-2.43;100.00
14818;BME280;7500;57.698;11.986;2022-12-11T07:16:30;101623.84;;;-2.43;100.00
14818;BME280;7500;57.698;11.986;2022-12-11T07:18:57;101624.69;;;-2.42;100.00
14818;BME280;7500;57.698;11.986;2022-12-11T07:21:24;101630.78;;;-2.39;100.00
14818;BME280;7500;57.698;11.986;2022-12-11T07:23:51;101631.69;;;-2.35;100.00
14818;BME280;7500;57.698;11.986;2022-12-11T07:26:19;101625.72;;;-2.30;100.00
14818;BME280;7500;57.698;11.986;2022-12-11T07:28:48;101589.31;;;-2.45;100.00
14818;BME280;7500;57.698;11.986;2022-12-11T07:31:18;101627.38;;;-2.35;100.00
14818;BME280;7500;57.698;11.986;2022-12-11T07:33:45;101631.72;;;-2.32;100.00
14818;BME280;7500;57.698;11.986;2022-12-11T07:36:13;101630.22;;;-2.16;100.00
14818;BME280;7500;57.698;11.986;2022-12-11T07:38:40;101619.88;;;-2.17;100.00
14818;BME280;7500;57.698;11.986;2022-12-11T07:41:10;101629.19;;;-2.28;100.00
14818;BME280;7500;57.698;11.986;2022-12-11T07:43:38;101622.41;;;-2.20;100.00
14818;BME280;7500;57.698;11.986;2022-12-11T07:46:09;101629.44;;;-2.12;100.00
14818;BME280;7500;57.698;11.986;2022-12-11T07:48:38;101641.31;;;-2.24;100.00
14818;BME280;7500;57.698;11.986;2022-12-11T07:51:10;101599.44;;;-2.61;100.00
14818;BME280;7500;57.698;11.986;2022-12-11T07:53:39;101643.53;;;-2.49;100.00
14818;BME280;7500;57.698;11.986;2022-12-11T07:56:06;101645.34;;;-2.44;100.00
14818;BME280;7500;57.698;11.986;2022-12-11T07:58:33;101641.03;;;-2.43;100.00
14818;BME280;7500;57.698;11.986;2022-12-11T08:01:01;101641.09;;;-2.42;100.00
14818;BME280;7500;57.698;11.986;2022-12-11T08:03:29;101652.41;;;-2.32;100.00
14818;BME280;7500;57.698;11.986;2022-12-11T08:05:56;101640.47;;;-2.24;100.00
14818;BME280;7500;57.698;11.986;2022-12-11T08:08:23;101648.47;;;-2.08;100.00
14818;BME280;7500;57.698;11.986;2022-12-11T08:10:50;101653.50;;;-2.17;100.00
14818;BME280;7500;57.698;11.986;2022-12-11T08:13:17;101648.34;;;-2.17;100.00
14818;BME280;7500;57.698;11.986;2022-12-11T08:15:44;101648.38;;;-2.14;100.00
14818;BME280;7500;57.698;11.986;2022-12-11T08:18:11;101646.59;;;-2.18;100.00
14818;BME280;7500;57.698;11.986;2022-12-11T08:20:39;101650.16;;;-2.09;100.00
14818;BME280;7500;57.698;11.986;2022-12-11T08:23:06;101642.53;;;-2.00;100.00
14818;BME280;7500;57.698;11.986;2022-12-11T08:25:33;101631.25;;;-2.03;100.00
14818;BME280;7500;57.698;11.986;2022-12-11T08:28:01;101635.59;;;-2.04;100.00
14818;BME280;7500;57.698;11.986;2022-12-11T08:30:27;101647.72;;;-2.00;100.00
14818;BME280;7500;57.698;11.986;2022-12-11T08:32:54;101651.19;;;-1.98;100.00
14818;BME280;7500;57.698;11.986;2022-12-11T08:35:21;101647.78;;;-1.94;100.00
14818;BME280;7500;57.698;11.986;2022-12-11T08:37:50;101639.09;;;-1.97;100.00
14818;BME280;7500;57.698;11.986;2022-12-11T08:40:17;101649.56;;;-1.90;100.00
14818;BME280;7500;57.698;11.986;2022-12-11T08:42:44;101655.56;;;-1.92;100.00
14818;BME280;7500;57.698;11.986;2022-12-11T08:45:11;101651.22;;;-1.95;100.00
14818;BME280;7500;57.698;11.986;2022-12-11T08:47:38;101642.72;;;-1.85;100.00
14818;BME280;7500;57.698;11.986;2022-12-11T08:50:05;101648.84;;;-1.78;100.00
14818;BME280;7500;57.698;11.986;2022-12-11T08:52:33;101652.25;;;-1.82;100.00
14818;BME280;7500;57.698;11.986;2022-12-11T08:55:02;101645.34;;;-1.82;100.00
14818;BME280;7500;57.698;11.986;2022-12-11T08:57:29;101647.13;;;-1.79;100.00
14818;BME280;7500;57.698;11.986;2022-12-11T08:59:56;101655.84;;;-1.71;100.00
14818;BME280;7500;57.698;11.986;2022-12-11T09:02:23;101654.16;;;-1.66;100.00
14818;BME280;7500;57.698;11.986;2022-12-11T09:04:50;101650.81;;;-1.59;100.00
14818;BME280;7500;57.698;11.986;2022-12-11T09:07:17;101649.78;;;-1.72;100.00
14818;BME280;7500;57.698;11.986;2022-12-11T09:09:44;101646.31;;;-1.74;100.00
14818;BME280;7500;57.698;11.986;2022-12-11T09:12:12;101652.34;;;-1.76;100.00
14818;BME280;7500;57.698;11.986;2022-12-11T09:14:39;101646.31;;;-1.74;100.00
14818;BME280;7500;57.698;11.986;2022-12-11T09:17:06;101654.00;;;-1.80;100.00
14818;BME280;7500;57.698;11.986;2022-12-11T09:19:33;101657.34;;;-1.88;100.00
14818;BME280;7500;57.698;11.986;2022-12-11T09:22:00;101661.66;;;-1.89;100.00
14818;BME280;7500;57.698;11.986;2022-12-11T09:24:27;101665.16;;;-1.84;100.00
14818;BME280;7500;57.698;11.986;2022-12-11T09:26:54;101665.25;;;-1.79;100.00
14818;BME280;7500;57.698;11.986;2022-12-11T09:29:22;101668.72;;;-1.77;100.00
14818;BME280;7500;57.698;11.986;2022-12-11T09:31:49;101672.19;;;-1.75;100.00
14818;BME280;7500;57.698;11.986;2022-12-11T09:34:16;101664.44;;;-1.75;100.00
14818;BME280;7500;57.698;11.986;2022-12-11T09:36:43;101669.56;;;-1.77;100.00
14818;BME280;7500;57.698;11.986;2022-12-11T09:39:11;101651.31;;;-1.86;100.00
14818;BME280;7500;57.698;11.986;2022-12-11T09:41:39;101671.34;;;-1.74;100.00
14818;BME280;7500;57.698;11.986;2022-12-11T09:44:18;101650.53;;;-1.83;100.00
14818;BME280;7500;57.698;11.986;2022-12-11T09:46:50;101683.34;;;-1.79;100.00
14818;BME280;7500;57.698;11.986;2022-12-11T09:49:23;101668.59;;;-1.85;100.00
14818;BME280;7500;57.698;11.986;2022-12-11T09:51:59;101658.25;;;-1.85;100.00
14818;BME280;7500;57.698;11.986;2022-12-11T09:54:29;101667.94;;;-1.70;100.00
14818;BME280;7500;57.698;11.986;2022-12-11T09:57:04;101654.16;;;-1.66;100.00
14818;BME280;7500;57.698;11.986;2022-12-11T09:59:39;101636.16;;;-1.59;100.00
14818;BME280;7500;57.698;11.986;2022-12-11T10:02:22;101638.88;;;-1.48;100.00
14818;BME280;7500;57.698;11.986;2022-12-11T10:04:57;101567.69;;;-1.86;100.00
14818;BME280;7500;57.698;11.986;2022-12-11T10:07:33;101645.94;;;-1.32;100.00
14818;BME280;7500;57.698;11.986;2022-12-11T10:10:08;101650.19;;;-1.39;100.00
14818;BME280;7500;57.698;11.986;2022-12-11T10:12:43;101640.59;;;-1.46;100.00
14818;BME280;7500;57.698;11.986;2022-12-11T10:15:23;101628.34;;;-1.60;100.00
14818;BME280;7500;57.698;11.986;2022-12-11T10:17:56;101637.78;;;-1.67;100.00
14818;BME280;7500;57.698;11.986;2022-12-11T10:20:27;101635.28;;;-1.59;100.00
14818;BME280;7500;57.698;11.986;2022-12-11T10:22:57;101640.41;;;-1.62;100.00
14818;BME280;7500;57.698;11.986;2022-12-11T10:25:26;101634.34;;;-1.66;100.00
14818;BME280;7500;57.698;11.986;2022-12-11T10:27:54;101634.22;;;-1.76;100.00
14818;BME280;7500;57.698;11.986;2022-12-11T10:30:24;101628.06;;;-1.83;100.00
14818;BME280;7500;57.698;11.986;2022-12-11T10:32:56;101643.75;;;-1.72;100.00
14818;BME280;7500;57.698;11.986;2022-12-11T10:35:31;101636.84;;;-1.73;100.00
14818;BME280;7500;57.698;11.986;2022-12-11T10:38:10;101635.16;;;-1.71;100.00
14818;BME280;7500;57.698;11.986;2022-12-11T10:40:39;101634.50;;;-1.54;100.00
14818;BME280;7500;57.698;11.986;2022-12-11T10:43:07;101640.53;;;-1.52;100.00
14818;BME280;7500;57.698;11.986;2022-12-11T10:45:35;101631.91;;;-1.52;100.00
14818;BME280;7500;57.698;11.986;2022-12-11T10:48:06;101622.38;;;-1.58;100.00
14818;BME280;7500;57.698;11.986;2022-12-11T10:50:35;101633.59;;;-1.53;100.00
14818;BME280;7500;57.698;11.986;2022-12-11T10:53:04;101628.50;;;-1.47;100.00
14818;BME280;7500;57.698;11.986;2022-12-11T10:55:38;101615.59;;;-1.45;100.00
14818;BME280;7500;57.698;11.986;2022-12-11T10:58:16;101643.28;;;-1.38;100.00
14818;BME280;7500;57.698;11.986;2022-12-11T11:00:44;101628.66;;;-1.33;100.00
14818;BME280;7500;57.698;11.986;2022-12-11T11:03:21;101623.47;;;-1.33;100.00
14818;BME280;7500;57.698;11.986;2022-12-11T11:05:49;101624.41;;;-1.25;100.00
14818;BME280;7500;57.698;11.986;2022-12-11T11:08:39;101620.97;;;-1.26;100.00
14818;BME280;7500;57.698;11.986;2022-12-11T11:11:20;101617.44;;;-1.34;100.00
14818;BME280;7500;57.698;11.986;2022-12-11T11:13:47;101608.81;;;-1.33;100.00
14818;BME280;7500;57.698;11.986;2022-12-11T11:16:16;101610.59;;;-1.29;100.00
14818;BME280;7500;57.698;11.986;2022-12-11T11:18:51;101615.69;;;-1.35;100.00
14818;BME280;7500;57.698;11.986;2022-12-11T11:21:21;101611.38;;;-1.34;100.00
14818;BME280;7500;57.698;11.986;2022-12-11T11:23:49;101611.47;;;-1.27;100.00
14818;BME280;7500;57.698;11.986;2022-12-11T11:26:16;101616.69;;;-1.22;100.00
14818;BME280;7500;57.698;11.986;2022-12-11T11:28:47;101614.94;;;-1.23;100.00
14818;BME280;7500;57.698;11.986;2022-12-11T11:31:16;101604.53;;;-1.31;100.00
14818;BME280;7500;57.698;11.986;2022-12-11T11:33:52;101620.13;;;-1.25;100.00
14818;BME280;7500;57.698;11.986;2022-12-11T11:36:23;101618.34;;;-1.27;100.00
14818;BME280;7500;57.698;11.986;2022-12-11T11:39:15;101614.03;;;-1.30;100.00
14818;BME280;7500;57.698;11.986;2022-12-11T11:41:46;101611.44;;;-1.30;100.00
14818;BME280;7500;57.698;11.986;2022-12-11T11:44:20;101612.25;;;-1.34;100.00
14818;BME280;7500;57.698;11.986;2022-12-11T11:46:55;101620.06;;;-1.29;100.00
14818;BME280;7500;57.698;11.986;2022-12-11T11:49:35;101616.63;;;-1.28;100.00
14818;BME280;7500;57.698;11.986;2022-12-11T11:52:12;101602.78;;;-1.30;100.00
14818;BME280;7500;57.698;11.986;2022-12-11T11:54:47;101608.97;;;-1.16;100.00
14818;BME280;7500;57.698;11.986;2022-12-11T11:57:17;101613.28;;;-1.17;100.00
14818;BME280;7500;57.698;11.986;2022-12-11T11:59:48;101606.41;;;-1.12;100.00
14818;BME280;7500;57.698;11.986;2022-12-11T12:02:18;101605.56;;;-1.13;100.00
14818;BME280;7500;57.698;11.986;2022-12-11T12:04:47;101609.84;;;-1.17;100.00
14818;BME280;7500;57.698;11.986;2022-12-11T12:07:28;101606.38;;;-1.16;100.00
14818;BME280;7500;57.698;11.986;2022-12-11T12:10:04;101611.56;;;-1.16;100.00
14818;BME280;7500;57.698;11.986;2022-12-11T12:12:41;101609.88;;;-1.14;100.00
14818;BME280;7500;57.698;11.986;2022-12-11T12:15:21;101609.84;;;-1.17;100.00
14818;BME280;7500;57.698;11.986;2022-12-11T12:17:54;101616.78;;;-1.13;100.00
14818;BME280;7500;57.698;11.986;2022-12-11T12:20:33;101609.09;;;-1.02;100.00
14818;BME280;7500;57.698;11.986;2022-12-11T12:23:19;101622.06;;;-1.02;100.00
14818;BME280;7500;57.698;11.986;2022-12-11T12:25:53;101613.44;;;-1.02;100.00
14818;BME280;7500;57.698;11.986;2022-12-11T12:28:29;101611.75;;;-0.97;100.00
14818;BME280;7500;57.698;11.986;2022-12-11T12:31:06;101609.25;;;-0.88;100.00
14818;BME280;7500;57.698;11.986;2022-12-11T12:33:47;101606.69;;;-0.85;100.00
14818;BME280;7500;57.698;11.986;2022-12-11T12:36:26;101605.03;;;-0.71;100.00
14818;BME280;7500;57.698;11.986;2022-12-11T12:39:00;101607.75;;;-0.59;100.00
14818;BME280;7500;57.698;11.986;2022-12-11T12:41:35;101612.91;;;-0.58;100.00
14818;BME280;7500;57.698;11.986;2022-12-11T12:44:13;101605.16;;;-0.56;100.00
14818;BME280;7500;57.698;11.986;2022-12-11T12:46:53;101601.69;;;-0.57;100.00
14818;BME280;7500;57.698;11.986;2022-12-11T12:49:37;101596.56;;;-0.46;100.00
14818;BME280;7500;57.698;11.986;2022-12-11T12:52:09;101598.28;;;-0.50;100.00
14818;BME280;7500;57.698;11.986;2022-12-11T12:54:39;101597.44;;;-0.49;100.00
14818;BME280;7500;57.698;11.986;2022-12-11T12:57:06;101604.41;;;-0.40;100.00
14818;BME280;7500;57.698;11.986;2022-12-11T12:59:33;101599.22;;;-0.40;100.00